Herron, MI

6:21 PM EDT on April 21, 2015 (GMT -0400)
MesoWest | | Change Station
CLOSE
Current Station
Personal Weather Station
Location: Lachine, MI
Elevation: 750 ft
Nearby Weather Stations

Elev 750 ft 45.07 °N, 83.72 °W | Updated 36 minutes ago

Overcast
Overcast
46 °F
Feels Like 43 °F
N
6
Wind Variable Wind from West
Gusts 21.0 mph

Today
High -- | Low -- °F
--% Chance of Precip.
Yesterday
High -- | Low -- °F
Precip. -- in
6:40 AM 8:27 PM
Waxing Crescent, 13% visible
Pressure 29.47 in
Visibility 10.0 miles
Clouds Scattered Clouds 2600 ft
Mostly Cloudy 3300 ft
Overcast 10000 ft
Windchill 43 °F
Dew Point 40 °F
Humidity 80%
Rainfall in
Snow Depth Not available.
UV 1 out of 12
Pollen 7.70 out of 12
Air Quality Not available.
Flu Activity Regional
METAR KAPN 212154Z AUTO 27009G18KT 10SM SCT026 BKN033 OVC100 06/01 A2945 RMK AO2 SLP978 T00560006

More Conditions Fewer Conditions

Pressure 29.47 in
Visibility 10.0 miles
Clouds Scattered Clouds 2600 ft
Mostly Cloudy 3300 ft
Overcast 10000 ft
Windchill 43 °F
Dew Point 40 °F
Humidity 80%
Rainfall in
Snow Depth Not available.
UV 1 out of 12
Pollen 7.70 out of 12
Air Quality Not available.
Flu Activity Regional
METAR KAPN 212154Z AUTO 27009G18KT 10SM SCT026 BKN033 OVC100 06/01 A2945 RMK AO2 SLP978 T00560006

More Conditions Fewer Conditions

Nowcast | as of 6:00 PM EDT on April 21, 2015

At 7 PM...numerous showers and snow showers. Temperature 42. West winds 10 mph. At 9 PM...mostly cloudy. Scattered showers and snow showers. Temperature 40. West winds 8 mph. At 11 PM...mostly cloudy. Scattered showers and snow showers. Temperature 37. West winds 7 mph. At 1 am...cloudy. Scattered snow showers. Temperature 35. West winds 5 mph.

×

10-Day Weather Forecast

Almanac

Astronomy

Apr. 21, 2015 Rise Set
Actual Time
Civil Twilight
Nautical Twilight
Astronomical Twilight
Moon
Length of Visible Light
Length of Day
Tomorrow will be .
, % of the Moon is Illuminated

Today's Extremes

State Highs State Lows

Community

WunderPhotos

Upload Photos

1,815,563 photos uploaded!

WunderBlogs® & News

Nearby

Air Quality

  Air Quality AQ Index Pollutant
Not available.

Snow Depth

Station Depth Elevation

Earthquake Activity

City Distance Mag. Time & Date
Minimum magnitude displayed is 2.5.

Coastal Water Temperatures

Place Temperature

Stations

Nearby Weather Stations

Station Location Temp. Windchill Dew Point Humidity Wind Precip. Elev Updated Type